Campania (kinkora), Australia

3:22 AM AEDT on December 05, 2016 (GMT +1100)
Saint Johns Circle | | Change Station

Elev 42 ft 42.73 °S, 147.44 °E | Updated 5 minutes ago

Light Rain Showers
Light Showers Rain
69.1 °F
Feels Like 69.1 °F
N
5.6
Wind Variable Wind from NW
Gusts 11.8 mph

Today
High -- | Low -- °F
--% Chance of Precip.
Yesterday
High -- | Low -- °F
Precip. -- in
Pressure 29.36 in
Visibility 5.6 miles
Clouds Few 2000 ft
Mostly Cloudy 4000 ft
Dew Point 59 °F
Humidity 70%
Rainfall 0.09 in
Snow Depth Not available.
5:26 AM 8:35 PM
Waxing Crescent, 23% visible
SPECI YMHB 041616Z 36013KT 9000 -SHRA FEW020 BKN040 18/16 Q0994 RESHRA
Pressure 29.36 in
Visibility 5.6 miles
Clouds Few 2000 ft
Mostly Cloudy 4000 ft
Dew Point 59 °F
Humidity 70%
Rainfall 0.09 in
Snow Depth Not available.
5:26 AM 8:35 PM
Waxing Crescent, 23% visible
SPECI YMHB 041616Z 36013KT 9000 -SHRA FEW020 BKN040 18/16 Q0994 RESHRA

10-Day Weather Forecast

×

Almanac

Astronomy

Dec. 05, 2016 Rise Set
Actual Time
Civil Twilight
Nautical Twilight
Astronomical Twilight
Moon
Length of Visible Light
Length of Day
Tomorrow will be .
, % of the Moon is Illuminated

Today's Extremes

Country Highs Country Lows

Community

WunderPhotos

Upload Photos

1,955,617 photos uploaded!

WunderBlog® & News

Nearby

Air Quality

  Air Quality AQ Index Pollutant
Not available.

Snow Depth

Station Depth Elevation

Earthquake Activity

City Distance Mag. Time & Date
Minimum magnitude displayed is 2.5.

Coastal Water Temperatures

Place Temperature

Stations

Nearby Weather Stations

Station Location Temp. Windchill Dew Point Humidity Wind Precip. Elev Updated Type